sensor_id;sensor_type;location;lat;lon;timestamp;P1;durP1;ratioP1;P2;durP2;ratioP2
13580;SDS011;6861;46.170;7.222;2024-03-02T00:01:53;6.57;;;5.00;;
13580;SDS011;6861;46.170;7.222;2024-03-02T00:04:22;6.15;;;4.55;;
13580;SDS011;6861;46.170;7.222;2024-03-02T00:06:51;6.97;;;4.80;;
13580;SDS011;6861;46.170;7.222;2024-03-02T00:09:21;5.43;;;4.50;;
13580;SDS011;6861;46.170;7.222;2024-03-02T00:11:49;5.50;;;4.50;;
13580;SDS011;6861;46.170;7.222;2024-03-02T00:14:17;6.28;;;4.68;;
13580;SDS011;6861;46.170;7.222;2024-03-02T00:16:46;5.88;;;4.82;;
13580;SDS011;6861;46.170;7.222;2024-03-02T00:19:14;5.38;;;4.55;;
13580;SDS011;6861;46.170;7.222;2024-03-02T00:21:42;6.20;;;5.03;;
13580;SDS011;6861;46.170;7.222;2024-03-02T00:24:17;5.82;;;4.82;;
13580;SDS011;6861;46.170;7.222;2024-03-02T00:26:50;4.90;;;4.20;;
13580;SDS011;6861;46.170;7.222;2024-03-02T00:29:18;4.43;;;3.60;;
13580;SDS011;6861;46.170;7.222;2024-03-02T00:31:47;5.10;;;3.67;;
13580;SDS011;6861;46.170;7.222;2024-03-02T00:34:16;4.80;;;4.05;;
13580;SDS011;6861;46.170;7.222;2024-03-02T00:36:45;6.95;;;4.70;;
13580;SDS011;6861;46.170;7.222;2024-03-02T00:39:14;6.63;;;4.40;;
13580;SDS011;6861;46.170;7.222;2024-03-02T00:41:44;6.00;;;4.93;;
13580;SDS011;6861;46.170;7.222;2024-03-02T00:44:14;5.15;;;4.50;;
13580;SDS011;6861;46.170;7.222;2024-03-02T00:46:43;3.53;;;3.15;;
13580;SDS011;6861;46.170;7.222;2024-03-02T00:49:12;5.05;;;3.90;;
13580;SDS011;6861;46.170;7.222;2024-03-02T00:51:48;6.43;;;3.92;;
13580;SDS011;6861;46.170;7.222;2024-03-02T00:54:19;5.47;;;4.18;;
13580;SDS011;6861;46.170;7.222;2024-03-02T00:56:50;4.57;;;3.97;;
13580;SDS011;6861;46.170;7.222;2024-03-02T00:59:20;6.70;;;4.50;;
13580;SDS011;6861;46.170;7.222;2024-03-02T01:01:48;6.40;;;4.10;;
13580;SDS011;6861;46.170;7.222;2024-03-02T01:04:18;5.95;;;3.97;;
13580;SDS011;6861;46.170;7.222;2024-03-02T01:06:46;5.22;;;3.80;;
13580;SDS011;6861;46.170;7.222;2024-03-02T01:09:14;5.32;;;3.60;;
13580;SDS011;6861;46.170;7.222;2024-03-02T01:11:44;6.88;;;3.95;;
13580;SDS011;6861;46.170;7.222;2024-03-02T01:14:13;5.72;;;4.38;;
13580;SDS011;6861;46.170;7.222;2024-03-02T01:16:42;4.68;;;3.00;;
13580;SDS011;6861;46.170;7.222;2024-03-02T01:19:11;4.40;;;3.20;;
13580;SDS011;6861;46.170;7.222;2024-03-02T01:21:39;4.97;;;3.15;;
13580;SDS011;6861;46.170;7.222;2024-03-02T01:24:07;5.30;;;4.07;;
13580;SDS011;6861;46.170;7.222;2024-03-02T01:26:36;4.55;;;3.40;;
13580;SDS011;6861;46.170;7.222;2024-03-02T01:29:04;9.02;;;5.18;;
13580;SDS011;6861;46.170;7.222;2024-03-02T01:31:32;9.63;;;6.45;;
13580;SDS011;6861;46.170;7.222;2024-03-02T01:34:02;7.70;;;6.13;;
13580;SDS011;6861;46.170;7.222;2024-03-02T01:36:30;6.43;;;5.47;;
13580;SDS011;6861;46.170;7.222;2024-03-02T01:38:58;8.55;;;6.22;;
13580;SDS011;6861;46.170;7.222;2024-03-02T01:41:27;7.55;;;6.32;;
13580;SDS011;6861;46.170;7.222;2024-03-02T01:43:55;9.23;;;5.65;;
13580;SDS011;6861;46.170;7.222;2024-03-02T01:46:23;6.40;;;5.10;;
13580;SDS011;6861;46.170;7.222;2024-03-02T01:48:51;5.55;;;4.57;;
13580;SDS011;6861;46.170;7.222;2024-03-02T01:51:21;7.80;;;5.30;;
13580;SDS011;6861;46.170;7.222;2024-03-02T01:53:49;6.38;;;5.28;;
13580;SDS011;6861;46.170;7.222;2024-03-02T01:56:17;8.13;;;5.43;;
13580;SDS011;6861;46.170;7.222;2024-03-02T01:58:46;9.43;;;5.95;;
13580;SDS011;6861;46.170;7.222;2024-03-02T02:01:14;7.93;;;5.60;;
13580;SDS011;6861;46.170;7.222;2024-03-02T02:03:43;7.18;;;5.60;;
13580;SDS011;6861;46.170;7.222;2024-03-02T02:06:12;7.50;;;5.50;;
13580;SDS011;6861;46.170;7.222;2024-03-02T02:08:42;13.38;;;5.07;;
13580;SDS011;6861;46.170;7.222;2024-03-02T02:11:10;6.32;;;4.13;;
13580;SDS011;6861;46.170;7.222;2024-03-02T02:13:42;7.35;;;4.80;;
13580;SDS011;6861;46.170;7.222;2024-03-02T02:16:10;7.47;;;4.30;;
13580;SDS011;6861;46.170;7.222;2024-03-02T02:18:39;7.13;;;4.38;;
13580;SDS011;6861;46.170;7.222;2024-03-02T02:21:07;6.05;;;4.28;;
13580;SDS011;6861;46.170;7.222;2024-03-02T02:23:37;6.38;;;4.05;;
13580;SDS011;6861;46.170;7.222;2024-03-02T02:26:05;5.85;;;3.72;;
13580;SDS011;6861;46.170;7.222;2024-03-02T02:28:33;4.95;;;3.80;;
13580;SDS011;6861;46.170;7.222;2024-03-02T02:31:01;5.93;;;4.45;;
13580;SDS011;6861;46.170;7.222;2024-03-02T02:33:29;6.65;;;4.90;;
13580;SDS011;6861;46.170;7.222;2024-03-02T02:35:58;8.23;;;4.95;;
13580;SDS011;6861;46.170;7.222;2024-03-02T02:38:26;6.95;;;5.22;;
13580;SDS011;6861;46.170;7.222;2024-03-02T02:40:56;6.40;;;4.97;;
13580;SDS011;6861;46.170;7.222;2024-03-02T02:43:24;8.43;;;6.22;;
13580;SDS011;6861;46.170;7.222;2024-03-02T02:45:52;7.75;;;5.78;;
13580;SDS011;6861;46.170;7.222;2024-03-02T02:48:21;6.32;;;5.25;;
13580;SDS011;6861;46.170;7.222;2024-03-02T02:50:49;8.27;;;5.72;;
13580;SDS011;6861;46.170;7.222;2024-03-02T02:53:17;7.75;;;5.82;;
13580;SDS011;6861;46.170;7.222;2024-03-02T02:55:45;8.75;;;5.72;;
13580;SDS011;6861;46.170;7.222;2024-03-02T02:58:15;9.23;;;5.93;;
13580;SDS011;6861;46.170;7.222;2024-03-02T03:00:43;10.93;;;6.32;;
13580;SDS011;6861;46.170;7.222;2024-03-02T03:03:12;9.00;;;6.10;;
13580;SDS011;6861;46.170;7.222;2024-03-02T03:05:40;10.52;;;6.03;;
13580;SDS011;6861;46.170;7.222;2024-03-02T03:08:08;7.43;;;5.82;;
13580;SDS011;6861;46.170;7.222;2024-03-02T03:10:37;8.05;;;5.50;;
13580;SDS011;6861;46.170;7.222;2024-03-02T03:13:05;8.40;;;5.70;;
13580;SDS011;6861;46.170;7.222;2024-03-02T03:15:36;8.52;;;4.50;;
13580;SDS011;6861;46.170;7.222;2024-03-02T03:18:05;7.15;;;4.90;;
13580;SDS011;6861;46.170;7.222;2024-03-02T03:20:34;5.70;;;5.05;;
13580;SDS011;6861;46.170;7.222;2024-03-02T03:23:02;6.45;;;5.32;;
13580;SDS011;6861;46.170;7.222;2024-03-02T03:25:31;6.65;;;5.13;;
13580;SDS011;6861;46.170;7.222;2024-03-02T03:27:59;8.60;;;5.97;;
13580;SDS011;6861;46.170;7.222;2024-03-02T03:30:30;7.55;;;5.55;;
13580;SDS011;6861;46.170;7.222;2024-03-02T03:32:59;7.65;;;5.43;;
13580;SDS011;6861;46.170;7.222;2024-03-02T03:35:28;6.30;;;4.90;;
13580;SDS011;6861;46.170;7.222;2024-03-02T03:37:56;7.57;;;4.50;;
13580;SDS011;6861;46.170;7.222;2024-03-02T03:40:24;5.47;;;4.05;;
13580;SDS011;6861;46.170;7.222;2024-03-02T03:42:52;7.20;;;4.65;;
13580;SDS011;6861;46.170;7.222;2024-03-02T03:45:22;7.10;;;4.80;;
13580;SDS011;6861;46.170;7.222;2024-03-02T03:47:54;6.28;;;4.50;;
13580;SDS011;6861;46.170;7.222;2024-03-02T03:50:24;6.18;;;4.57;;
13580;SDS011;6861;46.170;7.222;2024-03-02T03:52:53;6.00;;;4.68;;
13580;SDS011;6861;46.170;7.222;2024-03-02T03:55:22;6.22;;;4.88;;
13580;SDS011;6861;46.170;7.222;2024-03-02T03:57:50;7.90;;;5.30;;
13580;SDS011;6861;46.170;7.222;2024-03-02T04:00:18;7.20;;;5.35;;
13580;SDS011;6861;46.170;7.222;2024-03-02T04:02:46;10.02;;;5.65;;
13580;SDS011;6861;46.170;7.222;2024-03-02T04:05:15;5.68;;;4.78;;
13580;SDS011;6861;46.170;7.222;2024-03-02T04:07:44;6.78;;;4.40;;
13580;SDS011;6861;46.170;7.222;2024-03-02T04:10:12;5.32;;;4.22;;
13580;SDS011;6861;46.170;7.222;2024-03-02T04:12:42;7.07;;;3.60;;
13580;SDS011;6861;46.170;7.222;2024-03-02T04:15:11;6.03;;;4.13;;
13580;SDS011;6861;46.170;7.222;2024-03-02T04:17:39;5.50;;;3.75;;
13580;SDS011;6861;46.170;7.222;2024-03-02T04:20:07;6.03;;;3.83;;
13580;SDS011;6861;46.170;7.222;2024-03-02T04:22:39;4.68;;;3.67;;
13580;SDS011;6861;46.170;7.222;2024-03-02T04:25:09;5.25;;;3.80;;
13580;SDS011;6861;46.170;7.222;2024-03-02T04:27:37;4.72;;;3.83;;
13580;SDS011;6861;46.170;7.222;2024-03-02T04:30:06;5.88;;;3.50;;
13580;SDS011;6861;46.170;7.222;2024-03-02T04:32:35;6.15;;;3.35;;
13580;SDS011;6861;46.170;7.222;2024-03-02T04:35:04;4.10;;;3.35;;
13580;SDS011;6861;46.170;7.222;2024-03-02T04:37:34;5.50;;;3.90;;
13580;SDS011;6861;46.170;7.222;2024-03-02T04:40:03;8.73;;;3.97;;
13580;SDS011;6861;46.170;7.222;2024-03-02T04:42:36;4.53;;;3.20;;
13580;SDS011;6861;46.170;7.222;2024-03-02T04:45:05;3.72;;;3.15;;
13580;SDS011;6861;46.170;7.222;2024-03-02T04:47:34;5.28;;;3.60;;
13580;SDS011;6861;46.170;7.222;2024-03-02T04:50:02;4.85;;;3.30;;
13580;SDS011;6861;46.170;7.222;2024-03-02T04:52:32;3.88;;;3.00;;
13580;SDS011;6861;46.170;7.222;2024-03-02T04:55:00;4.50;;;3.75;;
13580;SDS011;6861;46.170;7.222;2024-03-02T04:57:47;4.05;;;2.80;;
13580;SDS011;6861;46.170;7.222;2024-03-02T05:00:17;4.78;;;3.30;;
13580;SDS011;6861;46.170;7.222;2024-03-02T05:02:46;3.92;;;3.30;;
13580;SDS011;6861;46.170;7.222;2024-03-02T05:05:14;3.50;;;2.80;;
13580;SDS011;6861;46.170;7.222;2024-03-02T05:07:42;3.97;;;2.97;;
13580;SDS011;6861;46.170;7.222;2024-03-02T05:10:11;5.57;;;3.10;;
13580;SDS011;6861;46.170;7.222;2024-03-02T05:12:39;3.90;;;2.90;;
13580;SDS011;6861;46.170;7.222;2024-03-02T05:15:28;3.80;;;2.90;;
13580;SDS011;6861;46.170;7.222;2024-03-02T05:17:56;4.55;;;2.88;;
13580;SDS011;6861;46.170;7.222;2024-03-02T05:20:26;5.13;;;2.90;;
13580;SDS011;6861;46.170;7.222;2024-03-02T05:22:54;4.00;;;2.67;;
13580;SDS011;6861;46.170;7.222;2024-03-02T05:25:23;6.13;;;2.83;;
13580;SDS011;6861;46.170;7.222;2024-03-02T05:27:51;4.88;;;3.47;;
13580;SDS011;6861;46.170;7.222;2024-03-02T05:30:19;5.60;;;3.30;;
13580;SDS011;6861;46.170;7.222;2024-03-02T05:32:49;4.68;;;3.53;;
13580;SDS011;6861;46.170;7.222;2024-03-02T05:35:17;3.78;;;3.28;;
13580;SDS011;6861;46.170;7.222;2024-03-02T05:37:45;4.90;;;3.45;;
13580;SDS011;6861;46.170;7.222;2024-03-02T05:40:14;4.15;;;3.28;;
13580;SDS011;6861;46.170;7.222;2024-03-02T05:42:42;4.53;;;3.20;;
13580;SDS011;6861;46.170;7.222;2024-03-02T05:45:10;4.45;;;3.20;;
13580;SDS011;6861;46.170;7.222;2024-03-02T05:47:39;4.72;;;3.10;;
13580;SDS011;6861;46.170;7.222;2024-03-02T05:50:09;4.93;;;2.60;;
13580;SDS011;6861;46.170;7.222;2024-03-02T05:52:37;3.70;;;2.75;;
13580;SDS011;6861;46.170;7.222;2024-03-02T05:55:05;3.80;;;2.67;;
13580;SDS011;6861;46.170;7.222;2024-03-02T05:57:34;3.35;;;2.70;;
13580;SDS011;6861;46.170;7.222;2024-03-02T06:00:16;3.88;;;2.80;;
13580;SDS011;6861;46.170;7.222;2024-03-02T06:02:45;3.30;;;2.60;;
13580;SDS011;6861;46.170;7.222;2024-03-02T06:05:14;4.65;;;2.78;;
13580;SDS011;6861;46.170;7.222;2024-03-02T06:07:43;5.75;;;2.85;;
13580;SDS011;6861;46.170;7.222;2024-03-02T06:10:12;4.47;;;2.88;;
13580;SDS011;6861;46.170;7.222;2024-03-02T06:12:41;4.20;;;2.83;;
13580;SDS011;6861;46.170;7.222;2024-03-02T06:15:09;4.90;;;2.90;;
13580;SDS011;6861;46.170;7.222;2024-03-02T06:17:38;5.93;;;2.97;;
13580;SDS011;6861;46.170;7.222;2024-03-02T06:20:06;3.25;;;2.80;;
13580;SDS011;6861;46.170;7.222;2024-03-02T06:22:37;4.05;;;2.65;;
13580;SDS011;6861;46.170;7.222;2024-03-02T06:25:06;3.13;;;2.35;;
13580;SDS011;6861;46.170;7.222;2024-03-02T06:27:35;4.55;;;2.63;;
13580;SDS011;6861;46.170;7.222;2024-03-02T06:30:04;4.57;;;3.28;;
13580;SDS011;6861;46.170;7.222;2024-03-02T06:32:32;3.28;;;2.20;;
13580;SDS011;6861;46.170;7.222;2024-03-02T06:35:02;3.03;;;2.20;;
13580;SDS011;6861;46.170;7.222;2024-03-02T06:37:31;4.18;;;3.35;;
13580;SDS011;6861;46.170;7.222;2024-03-02T06:40:01;8.02;;;7.22;;
13580;SDS011;6861;46.170;7.222;2024-03-02T06:42:29;8.63;;;7.80;;
13580;SDS011;6861;46.170;7.222;2024-03-02T06:45:00;3.22;;;2.53;;
13580;SDS011;6861;46.170;7.222;2024-03-02T06:47:29;4.15;;;2.60;;
13580;SDS011;6861;46.170;7.222;2024-03-02T06:49:57;3.25;;;2.53;;
13580;SDS011;6861;46.170;7.222;2024-03-02T06:52:26;4.72;;;3.10;;
13580;SDS011;6861;46.170;7.222;2024-03-02T06:54:54;6.80;;;3.10;;
13580;SDS011;6861;46.170;7.222;2024-03-02T06:57:24;4.90;;;2.85;;
13580;SDS011;6861;46.170;7.222;2024-03-02T06:59:52;5.50;;;3.38;;
13580;SDS011;6861;46.170;7.222;2024-03-02T07:02:25;6.65;;;3.58;;
13580;SDS011;6861;46.170;7.222;2024-03-02T07:04:53;8.10;;;3.60;;
13580;SDS011;6861;46.170;7.222;2024-03-02T07:07:22;5.80;;;2.90;;
13580;SDS011;6861;46.170;7.222;2024-03-02T07:09:50;5.45;;;2.65;;
13580;SDS011;6861;46.170;7.222;2024-03-02T07:12:18;7.20;;;2.90;;
13580;SDS011;6861;46.170;7.222;2024-03-02T07:14:48;5.65;;;3.10;;
13580;SDS011;6861;46.170;7.222;2024-03-02T07:17:37;6.85;;;3.05;;
13580;SDS011;6861;46.170;7.222;2024-03-02T07:20:06;6.65;;;3.30;;
13580;SDS011;6861;46.170;7.222;2024-03-02T07:22:35;6.53;;;3.20;;
13580;SDS011;6861;46.170;7.222;2024-03-02T07:25:07;5.88;;;3.72;;
13580;SDS011;6861;46.170;7.222;2024-03-02T07:27:56;6.07;;;3.28;;
13580;SDS011;6861;46.170;7.222;2024-03-02T07:30:25;5.55;;;3.10;;
13580;SDS011;6861;46.170;7.222;2024-03-02T07:32:56;5.00;;;2.90;;
13580;SDS011;6861;46.170;7.222;2024-03-02T07:35:25;7.20;;;3.00;;
13580;SDS011;6861;46.170;7.222;2024-03-02T07:37:54;7.05;;;3.30;;
13580;SDS011;6861;46.170;7.222;2024-03-02T07:40:23;7.38;;;3.08;;
13580;SDS011;6861;46.170;7.222;2024-03-02T07:42:51;4.95;;;2.95;;
13580;SDS011;6861;46.170;7.222;2024-03-02T07:45:20;10.55;;;6.85;;
13580;SDS011;6861;46.170;7.222;2024-03-02T07:47:49;8.43;;;4.10;;
13580;SDS011;6861;46.170;7.222;2024-03-02T07:50:18;9.35;;;4.07;;
13580;SDS011;6861;46.170;7.222;2024-03-02T07:52:46;6.93;;;4.15;;
13580;SDS011;6861;46.170;7.222;2024-03-02T07:55:14;6.63;;;3.33;;
13580;SDS011;6861;46.170;7.222;2024-03-02T07:57:43;45.88;;;16.52;;
13580;SDS011;6861;46.170;7.222;2024-03-02T08:00:11;17.98;;;8.90;;
13580;SDS011;6861;46.170;7.222;2024-03-02T08:02:42;27.83;;;12.73;;
13580;SDS011;6861;46.170;7.222;2024-03-02T08:05:12;15.63;;;8.32;;
13580;SDS011;6861;46.170;7.222;2024-03-02T08:07:40;41.83;;;19.48;;
13580;SDS011;6861;46.170;7.222;2024-03-02T08:10:09;19.38;;;11.90;;
13580;SDS011;6861;46.170;7.222;2024-03-02T08:12:37;10.05;;;6.82;;
13580;SDS011;6861;46.170;7.222;2024-03-02T08:15:06;5.90;;;4.50;;
13580;SDS011;6861;46.170;7.222;2024-03-02T08:17:34;4.38;;;3.08;;
13580;SDS011;6861;46.170;7.222;2024-03-02T08:20:05;6.97;;;2.67;;
13580;SDS011;6861;46.170;7.222;2024-03-02T08:22:36;5.72;;;2.70;;
13580;SDS011;6861;46.170;7.222;2024-03-02T08:25:04;5.85;;;3.47;;
13580;SDS011;6861;46.170;7.222;2024-03-02T08:27:33;7.45;;;6.65;;
13580;SDS011;6861;46.170;7.222;2024-03-02T08:30:02;4.15;;;2.85;;
13580;SDS011;6861;46.170;7.222;2024-03-02T08:32:33;5.13;;;2.60;;
13580;SDS011;6861;46.170;7.222;2024-03-02T08:35:02;3.47;;;2.40;;
13580;SDS011;6861;46.170;7.222;2024-03-02T08:37:31;3.35;;;1.90;;
13580;SDS011;6861;46.170;7.222;2024-03-02T08:40:01;3.17;;;2.17;;
13580;SDS011;6861;46.170;7.222;2024-03-02T08:42:31;3.25;;;2.00;;
13580;SDS011;6861;46.170;7.222;2024-03-02T08:44:59;3.95;;;2.10;;
13580;SDS011;6861;46.170;7.222;2024-03-02T08:47:28;3.83;;;2.10;;
13580;SDS011;6861;46.170;7.222;2024-03-02T08:49:57;2.97;;;1.90;;
13580;SDS011;6861;46.170;7.222;2024-03-02T08:52:27;3.13;;;2.20;;
13580;SDS011;6861;46.170;7.222;2024-03-02T08:54:55;3.05;;;2.10;;
13580;SDS011;6861;46.170;7.222;2024-03-02T08:57:25;4.18;;;2.15;;
13580;SDS011;6861;46.170;7.222;2024-03-02T08:59:54;5.10;;;2.03;;
13580;SDS011;6861;46.170;7.222;2024-03-02T09:02:23;3.60;;;2.08;;
13580;SDS011;6861;46.170;7.222;2024-03-02T09:04:51;2.83;;;1.80;;
13580;SDS011;6861;46.170;7.222;2024-03-02T09:07:20;6.28;;;3.15;;
13580;SDS011;6861;46.170;7.222;2024-03-02T09:09:48;4.43;;;3.00;;
13580;SDS011;6861;46.170;7.222;2024-03-02T09:12:16;4.35;;;2.45;;
13580;SDS011;6861;46.170;7.222;2024-03-02T09:14:46;4.72;;;2.63;;
13580;SDS011;6861;46.170;7.222;2024-03-02T09:17:14;4.78;;;2.40;;
13580;SDS011;6861;46.170;7.222;2024-03-02T09:19:42;4.90;;;2.30;;
13580;SDS011;6861;46.170;7.222;2024-03-02T09:22:11;2.85;;;2.10;;
13580;SDS011;6861;46.170;7.222;2024-03-02T09:24:39;3.08;;;2.40;;
13580;SDS011;6861;46.170;7.222;2024-03-02T09:27:08;3.03;;;1.50;;
13580;SDS011;6861;46.170;7.222;2024-03-02T09:29:36;2.03;;;1.30;;
13580;SDS011;6861;46.170;7.222;2024-03-02T09:32:06;2.47;;;1.90;;
13580;SDS011;6861;46.170;7.222;2024-03-02T09:34:35;5.45;;;4.72;;
13580;SDS011;6861;46.170;7.222;2024-03-02T09:37:04;1.98;;;1.40;;
13580;SDS011;6861;46.170;7.222;2024-03-02T09:39:33;1.30;;;1.10;;
13580;SDS011;6861;46.170;7.222;2024-03-02T09:42:01;2.30;;;1.38;;
13580;SDS011;6861;46.170;7.222;2024-03-02T09:44:31;1.90;;;1.20;;
13580;SDS011;6861;46.170;7.222;2024-03-02T09:47:01;3.30;;;1.40;;
13580;SDS011;6861;46.170;7.222;2024-03-02T09:49:30;2.83;;;1.10;;
13580;SDS011;6861;46.170;7.222;2024-03-02T09:51:58;3.92;;;1.20;;
13580;SDS011;6861;46.170;7.222;2024-03-02T09:54:27;3.67;;;1.50;;
13580;SDS011;6861;46.170;7.222;2024-03-02T09:56:56;3.88;;;1.67;;
13580;SDS011;6861;46.170;7.222;2024-03-02T09:59:24;2.38;;;1.50;;
13580;SDS011;6861;46.170;7.222;2024-03-02T10:01:57;3.28;;;1.10;;
13580;SDS011;6861;46.170;7.222;2024-03-02T10:04:27;2.13;;;0.80;;
13580;SDS011;6861;46.170;7.222;2024-03-02T10:07:15;0.80;;;0.60;;
13580;SDS011;6861;46.170;7.222;2024-03-02T10:09:45;1.17;;;0.68;;
13580;SDS011;6861;46.170;7.222;2024-03-02T10:12:15;0.60;;;0.60;;
13580;SDS011;6861;46.170;7.222;2024-03-02T10:14:44;0.75;;;0.57;;
13580;SDS011;6861;46.170;7.222;2024-03-02T10:17:16;1.05;;;0.57;;
13580;SDS011;6861;46.170;7.222;2024-03-02T10:19:45;2.13;;;0.90;;
13580;SDS011;6861;46.170;7.222;2024-03-02T10:22:15;1.02;;;0.63;;
13580;SDS011;6861;46.170;7.222;2024-03-02T10:24:43;0.80;;;0.80;;
13580;SDS011;6861;46.170;7.222;2024-03-02T10:27:15;1.55;;;0.68;;
13580;SDS011;6861;46.170;7.222;2024-03-02T10:29:45;1.15;;;0.40;;
13580;SDS011;6861;46.170;7.222;2024-03-02T10:32:14;1.45;;;0.50;;
13580;SDS011;6861;46.170;7.222;2024-03-02T10:34:44;1.45;;;0.40;;
13580;SDS011;6861;46.170;7.222;2024-03-02T10:37:14;2.20;;;0.60;;
13580;SDS011;6861;46.170;7.222;2024-03-02T10:39:46;0.80;;;0.40;;
13580;SDS011;6861;46.170;7.222;2024-03-02T10:42:15;0.60;;;0.43;;
13580;SDS011;6861;46.170;7.222;2024-03-02T10:44:44;1.50;;;0.57;;
13580;SDS011;6861;46.170;7.222;2024-03-02T10:47:13;2.92;;;1.65;;
13580;SDS011;6861;46.170;7.222;2024-03-02T10:49:43;0.68;;;0.50;;
13580;SDS011;6861;46.170;7.222;2024-03-02T10:52:16;0.40;;;0.30;;
13580;SDS011;6861;46.170;7.222;2024-03-02T10:54:44;0.47;;;0.38;;
13580;SDS011;6861;46.170;7.222;2024-03-02T10:57:13;1.05;;;0.30;;
13580;SDS011;6861;46.170;7.222;2024-03-02T10:59:46;0.73;;;0.43;;
13580;SDS011;6861;46.170;7.222;2024-03-02T11:02:21;0.70;;;0.50;;
13580;SDS011;6861;46.170;7.222;2024-03-02T11:04:51;0.57;;;0.30;;
13580;SDS011;6861;46.170;7.222;2024-03-02T11:07:25;0.50;;;0.50;;
13580;SDS011;6861;46.170;7.222;2024-03-02T11:09:59;0.47;;;0.35;;
13580;SDS011;6861;46.170;7.222;2024-03-02T11:12:36;0.57;;;0.40;;
13580;SDS011;6861;46.170;7.222;2024-03-02T11:15:10;0.45;;;0.20;;
13580;SDS011;6861;46.170;7.222;2024-03-02T11:17:39;0.45;;;0.30;;
13580;SDS011;6861;46.170;7.222;2024-03-02T11:20:08;0.70;;;0.30;;
13580;SDS011;6861;46.170;7.222;2024-03-02T11:22:39;1.00;;;0.50;;
13580;SDS011;6861;46.170;7.222;2024-03-02T11:25:11;0.82;;;0.50;;
13580;SDS011;6861;46.170;7.222;2024-03-02T11:28:00;2.72;;;0.50;;
13580;SDS011;6861;46.170;7.222;2024-03-02T11:33:23;0.68;;;0.40;;
13580;SDS011;6861;46.170;7.222;2024-03-02T11:35:56;1.75;;;0.50;;
13580;SDS011;6861;46.170;7.222;2024-03-02T11:38:29;0.93;;;0.50;;
13580;SDS011;6861;46.170;7.222;2024-03-02T11:40:59;1.92;;;0.63;;
13580;SDS011;6861;46.170;7.222;2024-03-02T11:43:29;1.75;;;0.55;;
13580;SDS011;6861;46.170;7.222;2024-03-02T11:45:58;0.75;;;0.50;;
13580;SDS011;6861;46.170;7.222;2024-03-02T11:48:31;0.73;;;0.60;;
13580;SDS011;6861;46.170;7.222;2024-03-02T11:51:00;0.95;;;0.55;;
13580;SDS011;6861;46.170;7.222;2024-03-02T11:53:30;0.75;;;0.50;;
13580;SDS011;6861;46.170;7.222;2024-03-02T11:56:01;2.10;;;0.80;;
13580;SDS011;6861;46.170;7.222;2024-03-02T11:58:32;0.63;;;0.40;;
13580;SDS011;6861;46.170;7.222;2024-03-02T12:01:04;1.25;;;0.65;;
13580;SDS011;6861;46.170;7.222;2024-03-02T12:03:32;0.73;;;0.43;;
13580;SDS011;6861;46.170;7.222;2024-03-02T12:06:03;0.93;;;0.60;;
13580;SDS011;6861;46.170;7.222;2024-03-02T12:08:34;0.73;;;0.30;;
13580;SDS011;6861;46.170;7.222;2024-03-02T12:11:02;0.80;;;0.40;;
13580;SDS011;6861;46.170;7.222;2024-03-02T12:13:33;0.80;;;0.43;;
13580;SDS011;6861;46.170;7.222;2024-03-02T12:16:01;1.15;;;0.73;;
13580;SDS011;6861;46.170;7.222;2024-03-02T12:18:30;0.43;;;0.30;;
13580;SDS011;6861;46.170;7.222;2024-03-02T12:20:58;3.15;;;0.52;;
13580;SDS011;6861;46.170;7.222;2024-03-02T12:23:29;1.73;;;0.40;;
13580;SDS011;6861;46.170;7.222;2024-03-02T12:25:59;1.63;;;0.40;;
13580;SDS011;6861;46.170;7.222;2024-03-02T12:28:28;0.40;;;0.40;;
13580;SDS011;6861;46.170;7.222;2024-03-02T12:30:57;1.10;;;0.45;;
13580;SDS011;6861;46.170;7.222;2024-03-02T12:33:26;0.40;;;0.20;;
13580;SDS011;6861;46.170;7.222;2024-03-02T12:35:56;0.70;;;0.40;;
13580;SDS011;6861;46.170;7.222;2024-03-02T12:38:25;1.75;;;0.70;;
13580;SDS011;6861;46.170;7.222;2024-03-02T12:40:53;1.05;;;0.60;;
13580;SDS011;6861;46.170;7.222;2024-03-02T12:43:23;0.60;;;0.40;;
13580;SDS011;6861;46.170;7.222;2024-03-02T12:45:52;0.55;;;0.40;;
13580;SDS011;6861;46.170;7.222;2024-03-02T12:48:22;0.40;;;0.38;;
13580;SDS011;6861;46.170;7.222;2024-03-02T12:50:51;0.65;;;0.32;;
13580;SDS011;6861;46.170;7.222;2024-03-02T12:53:21;0.50;;;0.20;;
13580;SDS011;6861;46.170;7.222;2024-03-02T12:55:50;0.70;;;0.40;;
13580;SDS011;6861;46.170;7.222;2024-03-02T12:58:19;1.15;;;0.40;;
13580;SDS011;6861;46.170;7.222;2024-03-02T13:00:49;0.60;;;0.20;;
13580;SDS011;6861;46.170;7.222;2024-03-02T13:03:17;0.50;;;0.30;;
13580;SDS011;6861;46.170;7.222;2024-03-02T13:05:50;0.98;;;0.40;;
13580;SDS011;6861;46.170;7.222;2024-03-02T13:08:19;1.08;;;0.50;;
13580;SDS011;6861;46.170;7.222;2024-03-02T13:10:48;1.38;;;0.30;;
13580;SDS011;6861;46.170;7.222;2024-03-02T13:13:16;0.65;;;0.40;;
13580;SDS011;6861;46.170;7.222;2024-03-02T13:15:45;0.88;;;0.30;;
13580;SDS011;6861;46.170;7.222;2024-03-02T13:18:17;1.15;;;0.40;;
13580;SDS011;6861;46.170;7.222;2024-03-02T13:20:46;0.43;;;0.30;;
13580;SDS011;6861;46.170;7.222;2024-03-02T13:23:14;0.50;;;0.32;;
13580;SDS011;6861;46.170;7.222;2024-03-02T13:25:42;1.23;;;0.40;;
13580;SDS011;6861;46.170;7.222;2024-03-02T13:28:11;1.10;;;0.40;;
13580;SDS011;6861;46.170;7.222;2024-03-02T13:30:39;0.60;;;0.40;;
13580;SDS011;6861;46.170;7.222;2024-03-02T13:33:08;0.50;;;0.30;;
13580;SDS011;6861;46.170;7.222;2024-03-02T13:35:38;4.72;;;0.30;;
13580;SDS011;6861;46.170;7.222;2024-03-02T13:38:06;1.48;;;0.38;;
13580;SDS011;6861;46.170;7.222;2024-03-02T13:40:34;1.17;;;0.50;;
13580;SDS011;6861;46.170;7.222;2024-03-02T13:43:03;0.77;;;0.40;;
13580;SDS011;6861;46.170;7.222;2024-03-02T13:45:31;2.15;;;0.40;;
13580;SDS011;6861;46.170;7.222;2024-03-02T13:48:00;0.52;;;0.30;;
13580;SDS011;6861;46.170;7.222;2024-03-02T13:50:30;0.77;;;0.47;;
13580;SDS011;6861;46.170;7.222;2024-03-02T13:52:59;2.15;;;0.35;;
13580;SDS011;6861;46.170;7.222;2024-03-02T13:55:29;0.77;;;0.40;;
13580;SDS011;6861;46.170;7.222;2024-03-02T13:57:58;0.70;;;0.30;;
13580;SDS011;6861;46.170;7.222;2024-03-02T14:00:26;1.42;;;0.30;;
13580;SDS011;6861;46.170;7.222;2024-03-02T14:02:55;4.20;;;0.43;;
13580;SDS011;6861;46.170;7.222;2024-03-02T14:05:23;0.43;;;0.30;;
13580;SDS011;6861;46.170;7.222;2024-03-02T14:07:52;0.60;;;0.22;;
13580;SDS011;6861;46.170;7.222;2024-03-02T14:10:21;1.77;;;0.20;;
13580;SDS011;6861;46.170;7.222;2024-03-02T14:12:50;2.38;;;0.47;;
13580;SDS011;6861;46.170;7.222;2024-03-02T14:15:18;1.77;;;0.25;;
13580;SDS011;6861;46.170;7.222;2024-03-02T14:17:47;0.73;;;0.30;;
13580;SDS011;6861;46.170;7.222;2024-03-02T14:20:16;1.00;;;0.30;;
13580;SDS011;6861;46.170;7.222;2024-03-02T14:22:48;0.50;;;0.32;;
13580;SDS011;6861;46.170;7.222;2024-03-02T14:25:17;0.93;;;0.30;;
13580;SDS011;6861;46.170;7.222;2024-03-02T14:27:47;0.95;;;0.30;;
13580;SDS011;6861;46.170;7.222;2024-03-02T14:30:35;0.88;;;0.30;;
13580;SDS011;6861;46.170;7.222;2024-03-02T14:33:04;0.75;;;0.45;;
13580;SDS011;6861;46.170;7.222;2024-03-02T14:35:32;0.95;;;0.73;;
13580;SDS011;6861;46.170;7.222;2024-03-02T14:38:01;1.42;;;0.30;;
13580;SDS011;6861;46.170;7.222;2024-03-02T14:40:29;0.70;;;0.30;;
13580;SDS011;6861;46.170;7.222;2024-03-02T14:42:59;1.58;;;0.35;;
13580;SDS011;6861;46.170;7.222;2024-03-02T14:45:28;0.80;;;0.30;;
13580;SDS011;6861;46.170;7.222;2024-03-02T14:47:56;0.38;;;0.20;;
13580;SDS011;6861;46.170;7.222;2024-03-02T14:50:26;1.65;;;0.20;;
13580;SDS011;6861;46.170;7.222;2024-03-02T14:52:55;1.85;;;0.40;;
13580;SDS011;6861;46.170;7.222;2024-03-02T14:55:25;1.55;;;0.35;;
13580;SDS011;6861;46.170;7.222;2024-03-02T14:57:54;0.45;;;0.20;;
13580;SDS011;6861;46.170;7.222;2024-03-02T15:00:24;0.40;;;0.20;;
13580;SDS011;6861;46.170;7.222;2024-03-02T15:02:52;0.65;;;0.20;;
13580;SDS011;6861;46.170;7.222;2024-03-02T15:05:20;4.88;;;0.50;;
13580;SDS011;6861;46.170;7.222;2024-03-02T15:07:48;0.70;;;0.30;;
13580;SDS011;6861;46.170;7.222;2024-03-02T15:10:16;0.47;;;0.38;;
13580;SDS011;6861;46.170;7.222;2024-03-02T15:12:45;2.25;;;0.70;;
13580;SDS011;6861;46.170;7.222;2024-03-02T15:15:13;0.50;;;0.30;;
13580;SDS011;6861;46.170;7.222;2024-03-02T15:17:44;1.83;;;0.70;;